Impala San Antonio — PD2500 — position and weather

sailwx.info

Track history (hours):
 
Tides and Currents Weather Stations Pressure Air Temp Water Temp Dewpoint Dewpoint Depression Visibility Wind Speed Wind Dir Waves Ship Positions

Impala San Antonio

Last reported at 2018-Jun-12 18:54 UTC. Time now 2018-Jun-19 22:19 UTC.
Position N 10°10' W 075°30'.

MMSI: 245999190.

Date/timePositionNaut miles runAvg speedWind from/ knotsBaromVisibWave heightAir tempDewpointWater temp
2018-Jun-12 18:54N 10°10' W 075°30'1 3.0
2018-Jun-12 18:29N 10°11' W 075°31'1 2.8
2018-Jun-12 17:59N 10°13' W 075°31'1 2.9
2018-Jun-12 17:28N 10°14' W 075°31'1 2.4
2018-Jun-12 16:59N 10°15' W 075°31'1 1.4
2018-Jun-12 16:30N 10°16' W 075°31'0 0.0
2018-Jun-12 15:59N 10°16' W 075°31'0 0.0
2018-Jun-12 13:20N 10°16' W 075°31'0 0.0
2018-Jun-12 13:00N 10°16' W 075°31'0 0.0
2018-Jun-12 12:10N 10°16' W 075°31'0 0.0
2018-Jun-12 11:55N 10°16' W 075°31'0 0.0
2018-Jun-12 11:07N 10°16' W 075°31'0 0.0
2018-Jun-12 10:59N 10°16' W 075°31'0 0.0
2018-Jun-12 10:28N 10°16' W 075°31'0 0.0
2018-Jun-12 10:00N 10°16' W 075°31'0 0.0
2018-Jun-12 09:17N 10°16' W 075°31'0 0.0
2018-Jun-12 08:49N 10°16' W 075°31'0 0.0
2018-Jun-12 08:17N 10°16' W 075°31'0 0.0
2018-Jun-12 07:20N 10°16' W 075°31'0 0.0
2018-Jun-12 06:34N 10°16' W 075°31'0 0.1
2018-Jun-12 06:28N 10°16' W 075°31'1 2.1
2018-Jun-12 06:00N 10°17' W 075°31'1 2.8
2018-Jun-12 05:30N 10°18' W 075°32'1 2.0
2018-Jun-12 04:58N 10°18' W 075°33'1 1.2
2018-Jun-12 04:30N 10°17' W 075°33'0 0.3
2018-Jun-12 04:00N 10°17' W 075°33'0 0.2
2018-Jun-12 03:30N 10°18' W 075°33'0 0.4
2018-Jun-12 03:00N 10°17' W 075°33'0 0.5
2018-Jun-12 02:30N 10°18' W 075°33'0 0.7
2018-Jun-12 02:00N 10°18' W 075°33'2 4.1
2018-Jun-12 01:30N 10°18' W 075°31'0 0.5
2018-Jun-12 01:00N 10°18' W 075°31'0 0.0
2018-Jun-12 00:30N 10°18' W 075°31'0 0.0
2018-Jun-11 23:58N 10°18' W 075°31'0 0.0
2018-Jun-11 23:29N 10°18' W 075°31'0 0.0
2018-Jun-11 22:59N 10°18' W 075°31'0 0.0
2018-Jun-11 22:28N 10°18' W 075°31'0 0.0
2018-Jun-11 21:16N 10°18' W 075°31'0 0.0
2018-Jun-11 21:00N 10°18' W 075°31'0 0.0
2018-Jun-11 20:15N 10°18' W 075°31'0 0.0
2018-Jun-11 19:54N 10°18' W 075°31'0 0.0
2018-Jun-11 19:30N 10°18' W 075°31'0 0.0
2018-Jun-11 19:00N 10°18' W 075°31'0 0.0
2018-Jun-11 18:30N 10°18' W 075°31'0 0.0
2018-Jun-11 17:54N 10°18' W 075°31'0 0.0
2018-Jun-11 17:29N 10°18' W 075°31'0 0.0
2018-Jun-11 17:00N 10°18' W 075°31'1 2.4
2018-Jun-11 16:30N 10°19' W 075°32'2 3.5
2018-Jun-11 16:00N 10°18' W 075°33'0 0.3
2018-Jun-11 15:30N 10°18' W 075°33'0 0.1
2018-Jun-11 15:00N 10°18' W 075°33'1 2.0
2018-Jun-11 14:29N 10°19' W 075°32'1 1.2
2018-Jun-11 13:59N 10°18' W 075°32'1 2.0
2018-Jun-11 13:32N 10°17' W 075°31'0 4.9
2018-Jun-11 13:30N 10°17' W 075°31'2142.6
2018-Jun-11 13:30N 10°16' W 075°31'3 6.4
2018-Jun-11 12:59N 10°12' W 075°31'2693.2
2018-Jun-11 12:58N 10°15' W 075°31'612.0
2018-Jun-11 12:30N 10°09' W 075°30'2399.0
2018-Jun-11 12:30N 10°11' W 075°31'61 2.6
2018-Jun-10 13:37N 10°51' W 074°45'1 5.1
2018-Jun-10 13:30N 10°52' W 074°44'1 1.7
2018-Jun-10 13:00N 10°53' W 074°44'0 0.0
2018-Jun-10 12:24N 10°53' W 074°44'0 0.0
2018-Jun-10 11:58N 10°53' W 074°44'0 0.0
2018-Jun-10 11:30N 10°53' W 074°44'0 0.0
2018-Jun-10 10:49N 10°53' W 074°44'0 0.0
2018-Jun-10 10:11N 10°53' W 074°44'0 0.0
2018-Jun-10 09:54N 10°53' W 074°44'0 0.0
2018-Jun-10 09:29N 10°53' W 074°44'0 0.0
2018-Jun-10 08:14N 10°53' W 074°44'0 0.0
2018-Jun-10 07:25N 10°53' W 074°44'0 0.0
2018-Jun-10 06:59N 10°53' W 074°44'0 0.0
2018-Jun-10 06:30N 10°53' W 074°44'0 0.0
2018-Jun-10 05:58N 10°53' W 074°44'0 0.0
2018-Jun-10 05:25N 10°53' W 074°44'0 0.0
2018-Jun-10 04:57N 10°53' W 074°44'0 0.0
2018-Jun-10 02:46N 10°53' W 074°44'0 0.0
2018-Jun-10 02:30N 10°53' W 074°44'0 0.0
2018-Jun-10 01:59N 10°53' W 074°44'0 0.0
2018-Jun-10 01:31N 10°53' W 074°44'0 0.0
2018-Jun-10 00:59N 10°53' W 074°44'0 0.0
2018-Jun-10 00:29N 10°53' W 074°44'0 0.0
2018-Jun-10 00:00N 10°53' W 074°44'0 0.5
2018-Jun-09 23:30N 10°53' W 074°44'0 0.0
2018-Jun-09 21:18N 10°53' W 074°44'0 0.1
2018-Jun-09 20:40N 10°53' W 074°44'0 0.0
2018-Jun-09 19:01N 10°53' W 074°44'0 0.9
2018-Jun-09 18:45N 10°53' W 074°44'0 0.0
2018-Jun-09 18:16N 10°53' W 074°44'0 0.0
2018-Jun-09 18:00N 10°53' W 074°44'0 0.0
2018-Jun-09 17:20N 10°53' W 074°44'0 0.3
2018-Jun-09 16:20N 10°53' W 074°44'0 0.8
2018-Jun-09 15:55N 10°53' W 074°44'0 1.0
2018-Jun-09 15:30N 10°53' W 074°44'0 0.0
2018-Jun-08 20:07N 10°53' W 074°44'0 0.0
2018-Jun-08 19:59N 10°53' W 074°44'0 0.0
2018-Jun-08 19:17N 10°53' W 074°44'0 0.7
2018-Jun-08 18:58N 10°53' W 074°44'0 0.0
2018-Jun-08 01:12N 10°53' W 074°44'0 0.0
2018-Jun-08 00:59N 10°53' W 074°44'0 0.0
2018-Jun-08 00:22N 10°53' W 074°44'0 0.0
2018-Jun-08 00:00N 10°53' W 074°44'0 0.0
2018-Jun-07 15:59N 10°53' W 074°44'0 0.0
2018-Jun-06 09:19N 10°53' W 074°44'0 0.0
2018-Jun-06 08:45N 10°53' W 074°44'0 0.0
2018-Jun-06 02:06N 10°53' W 074°44'0 0.0
2018-Jun-06 01:58N 10°53' W 074°44'0 0.0
2018-Jun-06 00:40N 10°53' W 074°44'1 5.0
2018-Jun-06 00:30N 10°52' W 074°44'62 2.8
2018-Jun-05 01:58N 10°09' W 075°30'2 3.4
2018-Jun-05 01:26N 10°11' W 075°30'1 2.7
2018-Jun-05 01:00N 10°12' W 075°31'1 2.4
2018-Jun-05 00:30N 10°13' W 075°31'1 3.0
2018-Jun-05 00:00N 10°14' W 075°31'1 2.4
2018-Jun-04 23:30N 10°16' W 075°31'0 0.9
2018-Jun-04 23:00N 10°16' W 075°31'1 1.6
2018-Jun-04 22:30N 10°17' W 075°31'1 2.2
2018-Jun-04 21:58N 10°18' W 075°32'1 2.2
2018-Jun-04 21:28N 10°19' W 075°33'0 0.8
2018-Jun-04 20:59N 10°18' W 075°33'2 3.6
2018-Jun-04 20:30N 10°17' W 075°31'1 1.7
2018-Jun-04 20:00N 10°16' W 075°31'2 3.2
2018-Jun-04 19:30N 10°18' W 075°32'2 3.0
2018-Jun-04 19:00N 10°19' W 075°32'1 2.7
2018-Jun-04 18:30N 10°18' W 075°33'0 0.2
2018-Jun-04 18:00N 10°18' W 075°33'0 0.1
2018-Jun-04 17:30N 10°18' W 075°33'0 0.1
2018-Jun-04 17:00N 10°18' W 075°33'0 0.7
2018-Jun-04 16:30N 10°17' W 075°32'0 0.1
2018-Jun-04 16:00N 10°17' W 075°32'0 0.0
2018-Jun-04 15:30N 10°17' W 075°32'0 0.0
2018-Jun-04 15:00N 10°17' W 075°32'0 0.0
2018-Jun-04 14:30N 10°17' W 075°32'0 0.0
2018-Jun-04 13:59N 10°17' W 075°32'0 0.0
2018-Jun-04 13:30N 10°17' W 075°32'0 0.0
2018-Jun-04 13:00N 10°17' W 075°32'0 0.0
2018-Jun-04 12:30N 10°17' W 075°32'0 0.9
2018-Jun-04 12:00N 10°17' W 075°33'0 0.0
2018-Jun-04 11:30N 10°18' W 075°33'0 0.1
2018-Jun-04 11:00N 10°17' W 075°33'0 0.1
2018-Jun-04 10:30N 10°17' W 075°33'0 0.2
2018-Jun-04 10:00N 10°17' W 075°33'0 0.1
2018-Jun-04 09:30N 10°17' W 075°33'0 0.1
2018-Jun-04 09:00N 10°18' W 075°33'0 0.0
2018-Jun-04 08:30N 10°18' W 075°33'0 0.0
2018-Jun-04 08:00N 10°18' W 075°33'0 0.1
2018-Jun-04 07:30N 10°18' W 075°33'0 0.0
2018-Jun-04 07:00N 10°18' W 075°33'0 0.2
2018-Jun-04 06:30N 10°17' W 075°33'0 0.1
2018-Jun-04 06:00N 10°17' W 075°33'0 0.1
2018-Jun-04 05:30N 10°17' W 075°33'0 0.0
2018-Jun-04 04:59N 10°17' W 075°33'0 0.1
2018-Jun-04 04:30N 10°17' W 075°33'0 0.1
2018-Jun-04 04:00N 10°17' W 075°33'0 0.1
2018-Jun-04 03:28N 10°18' W 075°33'0 0.1
2018-Jun-04 02:59N 10°18' W 075°33'0 0.1
2018-Jun-04 02:30N 10°17' W 075°33'0 0.2
2018-Jun-04 02:00N 10°17' W 075°33'0 0.0
2018-Jun-04 01:30N 10°17' W 075°33'0 0.0
2018-Jun-04 01:00N 10°17' W 075°33'0 0.1
2018-Jun-04 00:30N 10°17' W 075°33'0 0.0
2018-Jun-04 00:00N 10°18' W 075°33'0 0.1
2018-Jun-03 23:29N 10°17' W 075°33'0 0.2
2018-Jun-03 22:59N 10°17' W 075°33'0 0.1
2018-Jun-03 22:29N 10°17' W 075°33'0 0.1
2018-Jun-03 22:00N 10°17' W 075°33'0 0.1
2018-Jun-03 21:30N 10°17' W 075°33'0 0.0
2018-Jun-03 21:00N 10°17' W 075°33'0 0.1
2018-Jun-03 20:30N 10°17' W 075°33'0 0.1
2018-Jun-03 20:00N 10°18' W 075°33'0 0.0
2018-Jun-03 19:28N 10°18' W 075°33'0 0.0
2018-Jun-03 19:00N 10°18' W 075°33'0 0.1
2018-Jun-03 18:29N 10°17' W 075°33'58163.0
2018-Jun-03 18:08N 10°52' W 074°44'1 6.7
2018-Jun-03 18:00N 10°52' W 074°44'59212682.8
2018-Jun-03 18:00N 10°17' W 075°33'0 0.1
2018-Jun-03 17:30N 10°18' W 075°33'591045.9
2018-Jun-03 17:26N 10°53' W 074°44'59136.3
2018-Jun-03 17:00N 10°18' W 075°33'59325.3
2018-Jun-03 16:49N 10°53' W 074°44'59182.0
2018-Jun-03 16:30N 10°17' W 075°33'594546.4
2018-Jun-03 16:29N 10°53' W 074°44'59123.3
2018-Jun-03 16:00N 10°17' W 075°32'592399.2
2018-Jun-03 15:59N 10°53' W 074°44'59123.4
2018-Jun-03 15:30N 10°17' W 075°33'594858.3
2018-Jun-03 15:29N 10°53' W 074°44'0 0.0
2018-Jun-03 15:00N 10°53' W 074°44'59213820.3
2018-Jun-03 15:00N 10°18' W 075°33'0 0.1
2018-Jun-03 14:29N 10°18' W 075°33'0 0.1
2018-Jun-03 14:00N 10°18' W 075°33'0 0.2
2018-Jun-03 13:28N 10°18' W 075°33'0 0.0
2018-Jun-03 13:00N 10°18' W 075°33'0 0.0
2018-Jun-03 12:30N 10°18' W 075°33'0 0.1
2018-Jun-03 12:00N 10°18' W 075°33'0 0.2
2018-Jun-03 11:30N 10°18' W 075°33'0 0.1
2018-Jun-03 11:00N 10°18' W 075°33'0 0.1
2018-Jun-03 10:28N 10°18' W 075°33'0 0.0
2018-Jun-03 10:00N 10°18' W 075°33'0 0.0
2018-Jun-03 09:28N 10°18' W 075°33'0 0.0
2018-Jun-03 08:59N 10°18' W 075°33'0 0.0
2018-Jun-03 08:30N 10°18' W 075°33'0 0.0
2018-Jun-03 08:00N 10°18' W 075°33'0 0.0
2018-Jun-03 07:30N 10°18' W 075°33'0 0.1
2018-Jun-03 07:00N 10°18' W 075°33'0 0.1
2018-Jun-03 06:28N 10°18' W 075°33'0 0.2
2018-Jun-03 06:00N 10°18' W 075°33'0 0.1
2018-Jun-03 05:30N 10°17' W 075°33'0 0.0
2018-Jun-03 05:00N 10°17' W 075°33'0 0.1
2018-Jun-03 04:30N 10°17' W 075°33'0 0.0
2018-Jun-03 04:00N 10°18' W 075°33'0 0.0
2018-Jun-03 03:30N 10°17' W 075°33'59141.6
2018-Jun-03 03:04N 10°53' W 074°44'59769.9
2018-Jun-03 03:00N 10°17' W 075°33'0 0.1
2018-Jun-03 02:29N 10°17' W 075°33'0 0.1
2018-Jun-03 02:00N 10°18' W 075°33'0 0.7
2018-Jun-03 01:29N 10°18' W 075°33'2 4.0
2018-Jun-03 01:00N 10°19' W 075°31'57246.8
2018-Jun-03 00:46N 10°53' W 074°44'58196.6
2018-Jun-03 00:28N 10°18' W 075°31'58243.1
2018-Jun-03 00:14N 10°53' W 074°44'58228.9
2018-Jun-02 23:59N 10°18' W 075°31'0 0.0
2018-Jun-02 23:29N 10°18' W 075°31'0 0.0
2018-Jun-02 23:00N 10°18' W 075°31'0 0.0
2018-Jun-02 22:30N 10°18' W 075°31'0 0.0
2018-Jun-02 21:51N 10°18' W 075°31'0 0.0
2018-Jun-02 21:30N 10°18' W 075°31'0 0.0
2018-Jun-02 21:00N 10°18' W 075°31'0 0.0
2018-Jun-02 20:29N 10°18' W 075°31'0 0.0
2018-Jun-02 20:00N 10°18' W 075°31'0 0.0
2018-Jun-02 19:29N 10°18' W 075°31'0 0.0
2018-Jun-02 19:00N 10°18' W 075°31'  
Track history (hours):
 
Tides and Currents Weather Stations Pressure Air Temp Water Temp Dewpoint Dewpoint Depression Visibility Wind Speed Wind Dir Waves Ship Positions

Impala San Antonio

Last reported at 2018-Jun-12 18:54 UTC. Time now 2018-Jun-19 22:19 UTC.
Position N 10°10' W 075°30'.

MMSI: 245999190.

Date/timePositionNaut miles runAvg speedWind from/ knotsBaromVisibWave heightAir tempDewpointWater temp
2018-Jun-12 18:54N 10°10' W 075°30'1 3.0
2018-Jun-12 18:29N 10°11' W 075°31'1 2.8
2018-Jun-12 17:59N 10°13' W 075°31'1 2.9
2018-Jun-12 17:28N 10°14' W 075°31'1 2.4
2018-Jun-12 16:59N 10°15' W 075°31'1 1.4
2018-Jun-12 16:30N 10°16' W 075°31'0 0.0
2018-Jun-12 15:59N 10°16' W 075°31'0 0.0
2018-Jun-12 13:20N 10°16' W 075°31'0 0.0
2018-Jun-12 13:00N 10°16' W 075°31'0 0.0
2018-Jun-12 12:10N 10°16' W 075°31'0 0.0
2018-Jun-12 11:55N 10°16' W 075°31'0 0.0
2018-Jun-12 11:07N 10°16' W 075°31'0 0.0
2018-Jun-12 10:59N 10°16' W 075°31'0 0.0
2018-Jun-12 10:28N 10°16' W 075°31'0 0.0
2018-Jun-12 10:00N 10°16' W 075°31'0 0.0
2018-Jun-12 09:17N 10°16' W 075°31'0 0.0
2018-Jun-12 08:49N 10°16' W 075°31'0 0.0
2018-Jun-12 08:17N 10°16' W 075°31'0 0.0
2018-Jun-12 07:20N 10°16' W 075°31'0 0.0
2018-Jun-12 06:34N 10°16' W 075°31'0 0.1
2018-Jun-12 06:28N 10°16' W 075°31'1 2.1
2018-Jun-12 06:00N 10°17' W 075°31'1 2.8
2018-Jun-12 05:30N 10°18' W 075°32'1 2.0
2018-Jun-12 04:58N 10°18' W 075°33'1 1.2
2018-Jun-12 04:30N 10°17' W 075°33'0 0.3
2018-Jun-12 04:00N 10°17' W 075°33'0 0.2
2018-Jun-12 03:30N 10°18' W 075°33'0 0.4
2018-Jun-12 03:00N 10°17' W 075°33'0 0.5
2018-Jun-12 02:30N 10°18' W 075°33'0 0.7
2018-Jun-12 02:00N 10°18' W 075°33'2 4.1
2018-Jun-12 01:30N 10°18' W 075°31'0 0.5
2018-Jun-12 01:00N 10°18' W 075°31'0 0.0
2018-Jun-12 00:30N 10°18' W 075°31'0 0.0
2018-Jun-11 23:58N 10°18' W 075°31'0 0.0
2018-Jun-11 23:29N 10°18' W 075°31'0 0.0
2018-Jun-11 22:59N 10°18' W 075°31'0 0.0
2018-Jun-11 22:28N 10°18' W 075°31'0 0.0
2018-Jun-11 21:16N 10°18' W 075°31'0 0.0
2018-Jun-11 21:00N 10°18' W 075°31'0 0.0
2018-Jun-11 20:15N 10°18' W 075°31'0 0.0
2018-Jun-11 19:54N 10°18' W 075°31'0 0.0
2018-Jun-11 19:30N 10°18' W 075°31'0 0.0
2018-Jun-11 19:00N 10°18' W 075°31'0 0.0
2018-Jun-11 18:30N 10°18' W 075°31'0 0.0
2018-Jun-11 17:54N 10°18' W 075°31'0 0.0
2018-Jun-11 17:29N 10°18' W 075°31'0 0.0
2018-Jun-11 17:00N 10°18' W 075°31'1 2.4
2018-Jun-11 16:30N 10°19' W 075°32'2 3.5
2018-Jun-11 16:00N 10°18' W 075°33'0 0.3
2018-Jun-11 15:30N 10°18' W 075°33'0 0.1
2018-Jun-11 15:00N 10°18' W 075°33'1 2.0
2018-Jun-11 14:29N 10°19' W 075°32'1 1.2
2018-Jun-11 13:59N 10°18' W 075°32'1 2.0
2018-Jun-11 13:32N 10°17' W 075°31'0 4.9
2018-Jun-11 13:30N 10°17' W 075°31'2142.6
2018-Jun-11 13:30N 10°16' W 075°31'3 6.4
2018-Jun-11 12:59N 10°12' W 075°31'2693.2
2018-Jun-11 12:58N 10°15' W 075°31'612.0
2018-Jun-11 12:30N 10°09' W 075°30'2399.0
2018-Jun-11 12:30N 10°11' W 075°31'61 2.6
2018-Jun-10 13:37N 10°51' W 074°45'1 5.1
2018-Jun-10 13:30N 10°52' W 074°44'1 1.7
2018-Jun-10 13:00N 10°53' W 074°44'0 0.0
2018-Jun-10 12:24N 10°53' W 074°44'0 0.0
2018-Jun-10 11:58N 10°53' W 074°44'0 0.0
2018-Jun-10 11:30N 10°53' W 074°44'0 0.0
2018-Jun-10 10:49N 10°53' W 074°44'0 0.0
2018-Jun-10 10:11N 10°53' W 074°44'0 0.0
2018-Jun-10 09:54N 10°53' W 074°44'0 0.0
2018-Jun-10 09:29N 10°53' W 074°44'0 0.0
2018-Jun-10 08:14N 10°53' W 074°44'0 0.0
2018-Jun-10 07:25N 10°53' W 074°44'0 0.0
2018-Jun-10 06:59N 10°53' W 074°44'0 0.0
2018-Jun-10 06:30N 10°53' W 074°44'0 0.0
2018-Jun-10 05:58N 10°53' W 074°44'0 0.0
2018-Jun-10 05:25N 10°53' W 074°44'0 0.0
2018-Jun-10 04:57N 10°53' W 074°44'0 0.0
2018-Jun-10 02:46N 10°53' W 074°44'0 0.0
2018-Jun-10 02:30N 10°53' W 074°44'0 0.0
2018-Jun-10 01:59N 10°53' W 074°44'0 0.0
2018-Jun-10 01:31N 10°53' W 074°44'0 0.0
2018-Jun-10 00:59N 10°53' W 074°44'0 0.0
2018-Jun-10 00:29N 10°53' W 074°44'0 0.0
2018-Jun-10 00:00N 10°53' W 074°44'0 0.5
2018-Jun-09 23:30N 10°53' W 074°44'0 0.0
2018-Jun-09 21:18N 10°53' W 074°44'0 0.1
2018-Jun-09 20:40N 10°53' W 074°44'0 0.0
2018-Jun-09 19:01N 10°53' W 074°44'0 0.9
2018-Jun-09 18:45N 10°53' W 074°44'0 0.0
2018-Jun-09 18:16N 10°53' W 074°44'0 0.0
2018-Jun-09 18:00N 10°53' W 074°44'0 0.0
2018-Jun-09 17:20N 10°53' W 074°44'0 0.3
2018-Jun-09 16:20N 10°53' W 074°44'0 0.8
2018-Jun-09 15:55N 10°53' W 074°44'0 1.0
2018-Jun-09 15:30N 10°53' W 074°44'0 0.0
2018-Jun-08 20:07N 10°53' W 074°44'0 0.0
2018-Jun-08 19:59N 10°53' W 074°44'0 0.0
2018-Jun-08 19:17N 10°53' W 074°44'0 0.7
2018-Jun-08 18:58N 10°53' W 074°44'0 0.0
2018-Jun-08 01:12N 10°53' W 074°44'0 0.0
2018-Jun-08 00:59N 10°53' W 074°44'0 0.0
2018-Jun-08 00:22N 10°53' W 074°44'0 0.0
2018-Jun-08 00:00N 10°53' W 074°44'0 0.0
2018-Jun-07 15:59N 10°53' W 074°44'0 0.0
2018-Jun-06 09:19N 10°53' W 074°44'0 0.0
2018-Jun-06 08:45N 10°53' W 074°44'0 0.0
2018-Jun-06 02:06N 10°53' W 074°44'0 0.0
2018-Jun-06 01:58N 10°53' W 074°44'0 0.0
2018-Jun-06 00:40N 10°53' W 074°44'1 5.0
2018-Jun-06 00:30N 10°52' W 074°44'62 2.8
2018-Jun-05 01:58N 10°09' W 075°30'2 3.4
2018-Jun-05 01:26N 10°11' W 075°30'1 2.7
2018-Jun-05 01:00N 10°12' W 075°31'1 2.4
2018-Jun-05 00:30N 10°13' W 075°31'1 3.0
2018-Jun-05 00:00N 10°14' W 075°31'1 2.4
2018-Jun-04 23:30N 10°16' W 075°31'0 0.9
2018-Jun-04 23:00N 10°16' W 075°31'1 1.6
2018-Jun-04 22:30N 10°17' W 075°31'1 2.2
2018-Jun-04 21:58N 10°18' W 075°32'1 2.2
2018-Jun-04 21:28N 10°19' W 075°33'0 0.8
2018-Jun-04 20:59N 10°18' W 075°33'2 3.6
2018-Jun-04 20:30N 10°17' W 075°31'1 1.7
2018-Jun-04 20:00N 10°16' W 075°31'2 3.2
2018-Jun-04 19:30N 10°18' W 075°32'2 3.0
2018-Jun-04 19:00N 10°19' W 075°32'1 2.7
2018-Jun-04 18:30N 10°18' W 075°33'0 0.2
2018-Jun-04 18:00N 10°18' W 075°33'0 0.1
2018-Jun-04 17:30N 10°18' W 075°33'0 0.1
2018-Jun-04 17:00N 10°18' W 075°33'0 0.7
2018-Jun-04 16:30N 10°17' W 075°32'0 0.1
2018-Jun-04 16:00N 10°17' W 075°32'0 0.0
2018-Jun-04 15:30N 10°17' W 075°32'0 0.0
2018-Jun-04 15:00N 10°17' W 075°32'0 0.0
2018-Jun-04 14:30N 10°17' W 075°32'0 0.0
2018-Jun-04 13:59N 10°17' W 075°32'0 0.0
2018-Jun-04 13:30N 10°17' W 075°32'0 0.0
2018-Jun-04 13:00N 10°17' W 075°32'0 0.0
2018-Jun-04 12:30N 10°17' W 075°32'0 0.9
2018-Jun-04 12:00N 10°17' W 075°33'0 0.0
2018-Jun-04 11:30N 10°18' W 075°33'0 0.1
2018-Jun-04 11:00N 10°17' W 075°33'0 0.1
2018-Jun-04 10:30N 10°17' W 075°33'0 0.2
2018-Jun-04 10:00N 10°17' W 075°33'0 0.1
2018-Jun-04 09:30N 10°17' W 075°33'0 0.1
2018-Jun-04 09:00N 10°18' W 075°33'0 0.0
2018-Jun-04 08:30N 10°18' W 075°33'0 0.0
2018-Jun-04 08:00N 10°18' W 075°33'0 0.1
2018-Jun-04 07:30N 10°18' W 075°33'0 0.0
2018-Jun-04 07:00N 10°18' W 075°33'0 0.2
2018-Jun-04 06:30N 10°17' W 075°33'0 0.1
2018-Jun-04 06:00N 10°17' W 075°33'0 0.1
2018-Jun-04 05:30N 10°17' W 075°33'0 0.0
2018-Jun-04 04:59N 10°17' W 075°33'0 0.1
2018-Jun-04 04:30N 10°17' W 075°33'0 0.1
2018-Jun-04 04:00N 10°17' W 075°33'0 0.1
2018-Jun-04 03:28N 10°18' W 075°33'0 0.1
2018-Jun-04 02:59N 10°18' W 075°33'0 0.1
2018-Jun-04 02:30N 10°17' W 075°33'0 0.2
2018-Jun-04 02:00N 10°17' W 075°33'0 0.0
2018-Jun-04 01:30N 10°17' W 075°33'0 0.0
2018-Jun-04 01:00N 10°17' W 075°33'0 0.1
2018-Jun-04 00:30N 10°17' W 075°33'0 0.0
2018-Jun-04 00:00N 10°18' W 075°33'0 0.1
2018-Jun-03 23:29N 10°17' W 075°33'0 0.2
2018-Jun-03 22:59N 10°17' W 075°33'0 0.1
2018-Jun-03 22:29N 10°17' W 075°33'0 0.1
2018-Jun-03 22:00N 10°17' W 075°33'0 0.1
2018-Jun-03 21:30N 10°17' W 075°33'0 0.0
2018-Jun-03 21:00N 10°17' W 075°33'0 0.1
2018-Jun-03 20:30N 10°17' W 075°33'0 0.1
2018-Jun-03 20:00N 10°18' W 075°33'0 0.0
2018-Jun-03 19:28N 10°18' W 075°33'0 0.0
2018-Jun-03 19:00N 10°18' W 075°33'0 0.1
2018-Jun-03 18:29N 10°17' W 075°33'58163.0
2018-Jun-03 18:08N 10°52' W 074°44'1 6.7
2018-Jun-03 18:00N 10°52' W 074°44'59212682.8
2018-Jun-03 18:00N 10°17' W 075°33'0 0.1
2018-Jun-03 17:30N 10°18' W 075°33'591045.9
2018-Jun-03 17:26N 10°53' W 074°44'59136.3
2018-Jun-03 17:00N 10°18' W 075°33'59325.3
2018-Jun-03 16:49N 10°53' W 074°44'59182.0
2018-Jun-03 16:30N 10°17' W 075°33'594546.4
2018-Jun-03 16:29N 10°53' W 074°44'59123.3
2018-Jun-03 16:00N 10°17' W 075°32'592399.2
2018-Jun-03 15:59N 10°53' W 074°44'59123.4
2018-Jun-03 15:30N 10°17' W 075°33'594858.3
2018-Jun-03 15:29N 10°53' W 074°44'0 0.0
2018-Jun-03 15:00N 10°53' W 074°44'59213820.3
2018-Jun-03 15:00N 10°18' W 075°33'0 0.1
2018-Jun-03 14:29N 10°18' W 075°33'0 0.1
2018-Jun-03 14:00N 10°18' W 075°33'0 0.2
2018-Jun-03 13:28N 10°18' W 075°33'0 0.0
2018-Jun-03 13:00N 10°18' W 075°33'0 0.0
2018-Jun-03 12:30N 10°18' W 075°33'0 0.1
2018-Jun-03 12:00N 10°18' W 075°33'0 0.2
2018-Jun-03 11:30N 10°18' W 075°33'0 0.1
2018-Jun-03 11:00N 10°18' W 075°33'0 0.1
2018-Jun-03 10:28N 10°18' W 075°33'0 0.0
2018-Jun-03 10:00N 10°18' W 075°33'0 0.0
2018-Jun-03 09:28N 10°18' W 075°33'0 0.0
2018-Jun-03 08:59N 10°18' W 075°33'0 0.0
2018-Jun-03 08:30N 10°18' W 075°33'0 0.0
2018-Jun-03 08:00N 10°18' W 075°33'0 0.0
2018-Jun-03 07:30N 10°18' W 075°33'0 0.1
2018-Jun-03 07:00N 10°18' W 075°33'0 0.1
2018-Jun-03 06:28N 10°18' W 075°33'0 0.2
2018-Jun-03 06:00N 10°18' W 075°33'0 0.1
2018-Jun-03 05:30N 10°17' W 075°33'0 0.0
2018-Jun-03 05:00N 10°17' W 075°33'0 0.1
2018-Jun-03 04:30N 10°17' W 075°33'0 0.0
2018-Jun-03 04:00N 10°18' W 075°33'0 0.0
2018-Jun-03 03:30N 10°17' W 075°33'59141.6
2018-Jun-03 03:04N 10°53' W 074°44'59769.9
2018-Jun-03 03:00N 10°17' W 075°33'0 0.1
2018-Jun-03 02:29N 10°17' W 075°33'0 0.1
2018-Jun-03 02:00N 10°18' W 075°33'0 0.7
2018-Jun-03 01:29N 10°18' W 075°33'2 4.0
2018-Jun-03 01:00N 10°19' W 075°31'57246.8
2018-Jun-03 00:46N 10°53' W 074°44'58196.6
2018-Jun-03 00:28N 10°18' W 075°31'58243.1
2018-Jun-03 00:14N 10°53' W 074°44'58228.9
2018-Jun-02 23:59N 10°18' W 075°31'0 0.0
2018-Jun-02 23:29N 10°18' W 075°31'0 0.0
2018-Jun-02 23:00N 10°18' W 075°31'0 0.0
2018-Jun-02 22:30N 10°18' W 075°31'0 0.0
2018-Jun-02 21:51N 10°18' W 075°31'0 0.0
2018-Jun-02 21:30N 10°18' W 075°31'0 0.0
2018-Jun-02 21:00N 10°18' W 075°31'0 0.0
2018-Jun-02 20:29N 10°18' W 075°31'0 0.0
2018-Jun-02 20:00N 10°18' W 075°31'0 0.0
2018-Jun-02 19:29N 10°18' W 075°31'0 0.0
2018-Jun-02 19:00N 10°18' W 075°31'  

Dump ship's entire track history